Time;durP1;ratioP1;P1;durP2;ratioP2;P2;SDS_P1;SDS_P2;PMS_P1;PMS_P2;Temp;Humidity;BMP_temperature;BMP_pressure;BME280_temperature;BME280_humidity;BME280_pressure;Samples;Min_cycle;Max_cycle;Signal;HPM_P1;HPM_P2
2021/12/08 00:02:12;;;;;;;13.90;3.40;;;3.40;99.90;;;;;;4925051;29;20051;-73
2021/12/08 00:04:38;;;;;;;11.20;3.42;;;3.40;99.90;;;;;;4919729;29;20364;-73
2021/12/08 00:07:06;;;;;;;10.85;3.50;;;3.40;99.90;;;;;;4926248;29;20055;-72
2021/12/08 00:09:48;;;;;;;10.55;4.13;;;3.40;99.90;;;;;;4916371;29;20130;-73
2021/12/08 00:14:59;;;;;;;10.93;3.65;;;3.30;99.90;;;;;;4928194;29;20045;-73
2021/12/08 00:17:25;;;;;;;9.05;4.00;;;3.30;99.90;;;;;;4916230;29;20056;-73
2021/12/08 00:19:51;;;;;;;11.90;3.53;;;3.30;99.90;;;;;;4921542;29;20050;-72
2021/12/08 00:22:17;;;;;;;12.07;3.58;;;3.30;99.90;;;;;;4936551;29;20059;-72
2021/12/08 00:24:44;;;;;;;8.82;3.65;;;3.30;99.90;;;;;;4939710;29;20039;-73
2021/12/08 00:27:10;;;;;;;10.63;4.70;;;3.30;99.90;;;;;;4937143;29;20062;-73
2021/12/08 00:29:36;;;;;;;9.98;3.92;;;3.30;99.90;;;;;;4938105;29;20554;-72
2021/12/08 00:32:03;;;;;;;17.88;4.65;;;3.30;99.90;;;;;;4913451;29;20054;-72
2021/12/08 00:34:30;;;;;;;16.00;4.57;;;3.30;99.90;;;;;;4936731;29;20120;-73
2021/12/08 00:36:59;;;;;;;13.77;4.28;;;3.30;99.90;;;;;;4954308;29;20035;-73
2021/12/08 00:39:25;;;;;;;9.30;4.22;;;3.30;99.90;;;;;;4939004;29;20057;-72
2021/12/08 00:41:51;;;;;;;12.48;5.32;;;3.30;99.90;;;;;;4954962;29;20043;-72
2021/12/08 00:44:16;;;;;;;13.75;3.80;;;3.30;99.90;;;;;;4938747;29;20043;-72
2021/12/08 00:46:42;;;;;;;9.75;4.65;;;3.30;99.90;;;;;;4943224;28;20039;-73
2021/12/08 00:49:09;;;;;;;11.68;4.38;;;3.30;99.90;;;;;;4939367;29;20417;-73
2021/12/08 00:51:36;;;;;;;13.60;4.68;;;3.30;99.90;;;;;;4939837;29;20040;-72
2021/12/08 00:54:01;;;;;;;11.68;4.13;;;3.30;99.90;;;;;;4937206;29;20047;-72
2021/12/08 00:56:27;;;;;;;10.75;4.45;;;3.30;99.90;;;;;;4941874;29;20495;-72
2021/12/08 00:58:53;;;;;;;14.95;4.85;;;3.30;99.90;;;;;;4919520;29;20134;-72
2021/12/08 01:01:19;;;;;;;10.63;4.53;;;3.30;99.90;;;;;;4923556;29;20448;-72
2021/12/08 01:03:46;;;;;;;11.43;5.00;;;3.30;99.90;;;;;;4920031;29;20044;-72
2021/12/08 01:06:13;;;;;;;10.20;4.30;;;3.30;99.90;;;;;;4947375;29;20090;-72
2021/12/08 01:08:40;;;;;;;11.63;4.15;;;3.30;99.90;;;;;;4937752;29;20563;-73
2021/12/08 01:11:16;;;;;;;12.15;4.45;;;3.30;99.90;;;;;;4952824;28;20051;-72
2021/12/08 01:13:43;;;;;;;13.25;4.20;;;3.30;99.90;;;;;;4932245;29;20476;-72
2021/12/08 01:16:09;;;;;;;12.60;3.63;;;3.40;99.90;;;;;;4956128;29;20054;-72
2021/12/08 01:18:35;;;;;;;10.82;3.83;;;3.40;99.90;;;;;;4932873;29;20400;-72
2021/12/08 01:21:05;;;;;;;9.75;4.18;;;3.40;99.90;;;;;;4919181;29;20062;-72
2021/12/08 01:23:31;;;;;;;10.98;4.00;;;3.40;99.90;;;;;;4934716;29;20070;-73
2021/12/08 01:25:57;;;;;;;12.43;4.45;;;3.40;99.90;;;;;;4937644;29;20460;-73
2021/12/08 01:28:24;;;;;;;12.48;4.20;;;3.40;99.90;;;;;;4949543;28;20398;-73
2021/12/08 01:30:52;;;;;;;9.25;4.20;;;3.50;99.90;;;;;;4924449;29;20051;-73
2021/12/08 01:33:19;;;;;;;10.93;4.10;;;3.50;99.90;;;;;;4920501;29;20048;-72
2021/12/08 01:35:46;;;;;;;13.27;4.20;;;3.50;99.90;;;;;;4919394;29;20044;-72
2021/12/08 01:38:11;;;;;;;7.20;3.00;;;3.50;99.90;;;;;;4929183;29;20395;-72
2021/12/08 01:40:37;;;;;;;9.73;3.70;;;3.50;99.90;;;;;;4935916;28;20062;-73
2021/12/08 01:43:04;;;;;;;8.07;4.05;;;3.60;99.90;;;;;;4920022;29;20126;-72
2021/12/08 01:48:19;;;;;;;10.00;4.28;;;3.60;99.90;;;;;;4930976;29;20066;-72
2021/12/08 01:50:50;;;;;;;7.65;3.30;;;3.60;99.90;;;;;;4938013;29;20483;-72
2021/12/08 01:53:16;;;;;;;8.13;3.90;;;3.60;99.90;;;;;;4935203;29;20054;-72
2021/12/08 01:55:41;;;;;;;8.98;4.03;;;3.60;99.90;;;;;;4930286;29;20407;-72
2021/12/08 01:58:09;;;;;;;9.13;3.83;;;3.60;99.90;;;;;;4929546;29;20058;-72
2021/12/08 02:00:57;;;;;;;10.50;4.13;;;3.60;99.90;;;;;;4949840;29;20036;-73
2021/12/08 02:03:23;;;;;;;10.60;3.88;;;3.70;99.90;;;;;;4947220;28;20113;-73
2021/12/08 02:05:50;;;;;;;12.50;4.28;;;3.70;99.90;;;;;;4937611;29;20047;-73
2021/12/08 02:08:15;;;;;;;11.70;4.82;;;3.70;99.90;;;;;;4937040;29;20130;-73
2021/12/08 02:10:42;;;;;;;11.02;4.22;;;3.70;99.90;;;;;;4932724;29;20123;-72
2021/12/08 02:13:09;;;;;;;8.38;3.92;;;3.70;99.90;;;;;;4929121;29;20047;-73
2021/12/08 02:15:36;;;;;;;11.77;4.60;;;3.70;99.90;;;;;;4939714;29;20055;-72
2021/12/08 02:18:04;;;;;;;10.68;4.32;;;3.70;99.90;;;;;;4954918;28;20051;-72
2021/12/08 02:20:30;;;;;;;10.88;4.30;;;3.70;99.90;;;;;;4936699;29;20070;-72
2021/12/08 02:22:56;;;;;;;9.18;3.88;;;3.70;99.90;;;;;;4936968;29;20058;-73
2021/12/08 02:25:26;;;;;;;9.68;4.60;;;3.60;99.90;;;;;;4922192;29;20079;-73
2021/12/08 02:27:56;;;;;;;7.65;3.88;;;3.70;99.90;;;;;;4931719;29;20051;-72
2021/12/08 02:30:37;;;;;;;8.45;3.50;;;3.70;99.90;;;;;;4928528;29;20051;-73
2021/12/08 02:47:04;;;;;;;8.98;4.22;;;3.70;99.90;;;;;;4917539;29;20055;-73
2021/12/08 02:49:31;;;;;;;11.50;4.13;;;3.70;99.90;;;;;;4924613;29;20044;-72
2021/12/08 02:51:58;;;;;;;8.65;4.50;;;3.70;99.90;;;;;;4933092;29;20050;-72
2021/12/08 02:54:24;;;;;;;9.27;4.43;;;3.70;99.90;;;;;;4925306;29;20044;-72
2021/12/08 02:56:53;;;;;;;11.85;4.90;;;3.70;99.90;;;;;;4926772;29;20055;-72
2021/12/08 02:59:19;;;;;;;12.63;5.38;;;3.70;99.90;;;;;;4925763;29;20484;-72
2021/12/08 03:01:45;;;;;;;11.45;4.38;;;3.70;99.90;;;;;;4914786;29;20066;-73
2021/12/08 03:04:10;;;;;;;12.15;5.05;;;3.70;99.90;;;;;;4920735;29;20044;-72
2021/12/08 03:06:37;;;;;;;9.07;4.65;;;3.70;99.90;;;;;;4930565;29;20091;-72
2021/12/08 03:09:06;;;;;;;9.98;4.18;;;4.70;99.90;;;;;;4928912;29;20044;-73
2021/12/08 03:11:32;;;;;;;9.85;5.15;;;3.70;99.90;;;;;;4922520;29;20179;-73
2021/12/08 03:14:00;;;;;;;12.05;5.22;;;3.80;99.90;;;;;;4918092;29;20473;-72
2021/12/08 03:16:25;;;;;;;9.73;4.38;;;3.80;99.90;;;;;;4925627;29;20052;-73
2021/12/08 03:18:51;;;;;;;9.80;5.00;;;3.80;99.90;;;;;;4917812;29;20062;-73
2021/12/08 03:21:17;;;;;;;8.32;4.28;;;3.80;99.90;;;;;;4914268;29;20063;-73
2021/12/08 03:24:28;;;;;;;9.18;4.47;;;3.80;99.90;;;;;;4927409;29;20407;-73
2021/12/08 03:26:33;;;;;;;13.30;5.10;;;3.80;99.90;;;;;;4927183;29;20503;-73
2021/12/08 03:29:05;;;;;;;11.65;5.85;;;3.80;99.90;;;;;;4933830;29;20103;-72
2021/12/08 03:31:37;;;;;;;9.80;6.30;;;3.80;99.90;;;;;;4932715;29;20055;-73
2021/12/08 03:34:02;;;;;;;11.40;6.25;;;3.80;99.90;;;;;;4917378;29;20096;-72
2021/12/08 03:36:28;;;;;;;9.90;6.57;;;3.80;99.90;;;;;;4927597;29;20055;-73
2021/12/08 03:38:54;;;;;;;9.40;6.13;;;3.90;99.90;;;;;;4913778;29;20470;-72
2021/12/08 03:41:20;;;;;;;13.70;6.65;;;3.90;99.90;;;;;;4920477;29;20048;-72
2021/12/08 03:43:46;;;;;;;11.65;6.30;;;4.00;99.90;;;;;;4927308;29;20056;-72
2021/12/08 03:46:13;;;;;;;10.10;6.18;;;3.90;99.90;;;;;;4914213;29;20056;-73
2021/12/08 03:48:49;;;;;;;10.38;6.30;;;3.90;99.90;;;;;;4925667;29;20052;-73
2021/12/08 03:51:16;;;;;;;13.15;6.57;;;3.80;99.90;;;;;;4932752;29;20411;-73
2021/12/08 03:53:43;;;;;;;11.50;6.20;;;3.90;99.90;;;;;;4919583;29;20127;-72
2021/12/08 03:56:08;;;;;;;15.50;6.82;;;3.90;99.90;;;;;;4933508;29;20058;-73
2021/12/08 03:58:35;;;;;;;12.48;6.72;;;4.10;99.90;;;;;;4931860;29;20396;-73
2021/12/08 04:01:02;;;;;;;15.40;6.68;;;3.90;99.90;;;;;;4933272;29;20432;-72
2021/12/08 04:03:31;;;;;;;14.85;7.55;;;4.00;99.90;;;;;;4922945;29;20453;-72
2021/12/08 04:06:06;;;;;;;11.35;6.65;;;4.00;99.90;;;;;;4915733;29;20052;-73
2021/12/08 04:08:53;;;;;;;12.75;7.90;;;4.00;99.90;;;;;;4930007;29;20050;-72
2021/12/08 04:11:19;;;;;;;13.68;7.25;;;4.00;99.90;;;;;;4916571;29;20120;-72
2021/12/08 04:14:10;;;;;;;13.05;8.40;;;4.00;99.90;;;;;;4914973;29;20400;-72
2021/12/08 04:16:40;;;;;;;13.43;8.63;;;4.00;99.90;;;;;;4914186;29;20056;-72
2021/12/08 04:19:07;;;;;;;13.68;8.23;;;4.00;99.90;;;;;;4931844;29;20050;-72
2021/12/08 04:21:34;;;;;;;13.43;9.60;;;4.00;99.90;;;;;;4912649;29;20111;-72
2021/12/08 04:24:00;;;;;;;14.10;8.82;;;4.10;99.90;;;;;;4915921;29;20516;-73
2021/12/08 04:26:28;;;;;;;14.60;8.80;;;4.10;99.90;;;;;;4942744;29;20043;-73
2021/12/08 04:28:54;;;;;;;15.20;8.88;;;4.00;99.90;;;;;;4934611;29;20057;-73
2021/12/08 04:31:33;;;;;;;15.70;9.90;;;4.00;99.90;;;;;;4928443;29;20051;-73
2021/12/08 04:34:04;;;;;;;14.13;9.13;;;4.10;99.90;;;;;;4935847;29;20099;-72
2021/12/08 04:36:40;;;;;;;17.35;9.80;;;4.10;99.90;;;;;;4947112;29;20043;-72
2021/12/08 04:39:15;;;;;;;17.02;9.68;;;4.10;99.90;;;;;;4929276;29;20090;-73
2021/12/08 04:41:47;;;;;;;14.98;10.40;;;4.10;99.90;;;;;;4924836;29;20491;-73
2021/12/08 04:44:25;;;;;;;18.48;10.02;;;4.20;99.90;;;;;;4922892;29;20098;-72
2021/12/08 04:47:13;;;;;;;15.82;10.32;;;4.20;99.90;;;;;;4935628;29;20483;-73
2021/12/08 04:52:41;;;;;;;17.65;10.25;;;4.20;99.90;;;;;;4916020;29;20495;-73
2021/12/08 05:04:06;;;;;;;16.13;10.07;;;4.40;99.90;;;;;;4937327;29;20051;-73
2021/12/08 05:06:51;;;;;;;19.50;10.45;;;4.40;99.90;;;;;;4919814;29;20051;-73
2021/12/08 05:09:24;;;;;;;18.17;10.02;;;4.50;99.90;;;;;;4921523;29;20054;-72
2021/12/08 05:11:56;;;;;;;18.52;11.38;;;4.40;99.90;;;;;;4921867;29;20927;-73
2021/12/08 05:14:27;;;;;;;19.73;11.13;;;4.50;99.90;;;;;;4955772;29;20047;-73
2021/12/08 05:17:03;;;;;;;17.33;10.80;;;4.50;99.90;;;;;;4937428;29;20051;-72
2021/12/08 05:19:31;;;;;;;17.60;11.15;;;4.60;99.90;;;;;;4938231;29;20058;-73
2021/12/08 05:22:11;;;;;;;24.75;12.35;;;4.50;99.90;;;;;;4935626;29;20089;-73
2021/12/08 05:24:43;;;;;;;17.00;11.30;;;4.60;99.90;;;;;;4926386;29;20043;-71
2021/12/08 05:27:21;;;;;;;19.85;10.52;;;4.60;99.90;;;;;;4920825;29;20062;-71
2021/12/08 05:29:59;;;;;;;20.65;11.98;;;4.60;99.90;;;;;;4920413;29;20456;-71
2021/12/08 05:32:25;;;;;;;18.25;10.65;;;4.60;99.90;;;;;;4929172;29;20491;-71
2021/12/08 05:34:51;;;;;;;19.40;11.13;;;4.70;99.90;;;;;;4925846;29;20041;-71
2021/12/08 05:37:20;;;;;;;17.58;11.52;;;4.70;99.90;;;;;;4919439;29;20039;-72
2021/12/08 05:39:46;;;;;;;20.65;11.02;;;4.70;99.90;;;;;;4925313;28;20038;-71
2021/12/08 05:42:16;;;;;;;18.85;11.07;;;4.70;99.90;;;;;;4926364;29;20462;-72
2021/12/08 05:44:43;;;;;;;17.83;10.57;;;4.70;99.90;;;;;;4952682;29;20050;-72
2021/12/08 05:47:13;;;;;;;17.35;10.07;;;4.70;99.90;;;;;;4926359;29;20779;-71
2021/12/08 05:49:40;;;;;;;17.88;9.88;;;5.10;99.90;;;;;;4953637;29;20114;-72
2021/12/08 05:52:07;;;;;;;15.65;9.63;;;4.80;99.90;;;;;;4941860;28;20048;-71
2021/12/08 05:54:36;;;;;;;16.05;9.82;;;4.80;99.90;;;;;;4924683;29;20110;-70
2021/12/08 05:57:12;;;;;;;17.58;11.00;;;4.90;99.90;;;;;;4928332;29;20062;-70
2021/12/08 05:59:39;;;;;;;16.17;9.45;;;4.90;99.90;;;;;;4929746;28;20046;-70
2021/12/08 06:02:15;;;;;;;16.63;9.30;;;4.90;99.90;;;;;;4936803;29;20410;-71
2021/12/08 06:04:42;;;;;;;13.98;7.95;;;4.90;99.90;;;;;;4924425;29;20059;-71
2021/12/08 06:07:09;;;;;;;14.57;8.45;;;4.90;99.90;;;;;;4924932;29;20075;-71
2021/12/08 06:09:37;;;;;;;16.08;8.35;;;5.00;99.90;;;;;;4932252;29;20487;-71
2021/12/08 06:12:05;;;;;;;13.30;8.65;;;5.00;99.90;;;;;;4943747;28;20051;-71
2021/12/08 06:14:32;;;;;;;13.50;8.10;;;5.00;99.90;;;;;;4931946;29;20503;-71
2021/12/08 06:17:04;;;;;;;13.77;7.68;;;5.00;99.90;;;;;;4949003;29;20058;-72
2021/12/08 06:19:30;;;;;;;14.50;8.02;;;5.00;99.90;;;;;;4926429;29;20051;-72
2021/12/08 06:21:55;;;;;;;15.75;7.50;;;5.10;99.90;;;;;;4935394;29;20044;-72
2021/12/08 06:24:21;;;;;;;15.50;8.05;;;5.10;99.90;;;;;;4935633;29;20054;-73
2021/12/08 06:26:48;;;;;;;14.77;7.00;;;5.20;99.90;;;;;;4922587;29;20182;-73
2021/12/08 06:29:17;;;;;;;13.95;7.07;;;5.20;99.90;;;;;;4921815;29;20071;-74
2021/12/08 06:31:44;;;;;;;12.02;6.63;;;5.20;99.90;;;;;;4923436;29;20085;-75
2021/12/08 06:34:10;;;;;;;14.95;7.07;;;5.20;99.90;;;;;;4936935;29;20055;-74
2021/12/08 06:36:41;;;;;;;13.90;7.15;;;5.20;99.90;;;;;;4933182;29;20058;-74
2021/12/08 06:39:12;;;;;;;13.50;6.93;;;5.20;99.90;;;;;;4922104;29;20514;-74
2021/12/08 06:41:45;;;;;;;14.32;7.65;;;5.20;99.90;;;;;;4951553;29;20059;-75
2021/12/08 06:44:15;;;;;;;12.70;6.75;;;5.20;99.90;;;;;;4936243;29;20058;-75
2021/12/08 06:46:42;;;;;;;11.18;6.35;;;5.20;99.90;;;;;;4919146;29;20062;-75
2021/12/08 06:49:11;;;;;;;11.95;6.53;;;5.20;99.90;;;;;;4920241;29;20072;-75
2021/12/08 06:51:43;;;;;;;15.95;6.32;;;5.20;99.90;;;;;;4943223;29;20039;-75
2021/12/08 06:54:17;;;;;;;11.73;6.53;;;5.20;99.90;;;;;;4936660;29;20047;-72
2021/12/08 06:56:51;;;;;;;13.10;6.28;;;5.10;99.90;;;;;;4931967;29;20180;-72
2021/12/08 06:59:22;;;;;;;11.88;6.15;;;5.20;99.90;;;;;;4924170;29;20138;-72
2021/12/08 07:02:06;;;;;;;13.50;6.07;;;5.20;99.90;;;;;;4928914;29;20426;-72
2021/12/08 07:07:24;;;;;;;13.52;5.68;;;5.20;99.90;;;;;;4950344;29;20503;-73
2021/12/08 07:09:55;;;;;;;14.35;6.30;;;5.10;99.90;;;;;;4935995;29;20106;-74
2021/12/08 07:12:26;;;;;;;13.10;6.15;;;5.10;99.90;;;;;;4923023;29;20110;-77
2021/12/08 07:15:10;;;;;;;13.20;6.28;;;5.10;99.90;;;;;;4949404;29;20046;-76
2021/12/08 07:17:38;;;;;;;12.10;5.55;;;5.10;99.90;;;;;;4936193;29;20062;-76
2021/12/08 07:20:34;;;;;;;10.98;4.90;;;5.10;99.90;;;;;;4922267;29;20051;-79
2021/12/08 07:23:02;;;;;;;10.32;5.05;;;5.10;99.90;;;;;;4927317;29;20058;-78
2021/12/08 07:25:30;;;;;;;10.10;5.03;;;5.00;99.90;;;;;;4917152;29;20138;-78
2021/12/08 07:27:56;;;;;;;10.60;5.05;;;5.00;99.90;;;;;;4934625;29;20039;-75
2021/12/08 07:30:31;;;;;;;13.52;5.03;;;5.00;99.90;;;;;;4936366;29;20055;-75
2021/12/08 07:32:58;;;;;;;9.45;4.65;;;5.00;99.90;;;;;;4924407;29;20051;-75
2021/12/08 07:35:28;;;;;;;12.95;4.45;;;5.00;99.90;;;;;;4934579;29;20051;-75
2021/12/08 07:37:54;;;;;;;9.40;4.47;;;5.00;99.90;;;;;;4916600;29;20039;-74
2021/12/08 07:40:39;;;;;;;11.00;4.10;;;5.00;99.90;;;;;;4925423;29;20047;-75
2021/12/08 07:43:10;;;;;;;8.45;4.00;;;5.00;99.90;;;;;;4922852;28;20134;-73
2021/12/08 07:45:42;;;;;;;9.98;4.55;;;5.10;99.90;;;;;;4920145;29;20476;-73
2021/12/08 07:48:13;;;;;;;11.00;4.13;;;4.90;99.90;;;;;;4949099;28;20051;-73
2021/12/08 07:50:46;;;;;;;9.05;3.65;;;4.90;99.90;;;;;;4935051;29;20106;-73
2021/12/08 07:53:14;;;;;;;10.77;3.67;;;4.80;99.90;;;;;;4927948;29;20122;-73
2021/12/08 07:55:45;;;;;;;11.55;3.58;;;4.90;99.90;;;;;;4952325;29;20530;-73
2021/12/08 07:58:14;;;;;;;8.77;3.17;;;4.80;99.90;;;;;;4934733;29;20055;-73
2021/12/08 08:00:45;;;;;;;8.35;3.30;;;4.80;99.90;;;;;;4934690;29;20066;-73
2021/12/08 08:03:13;;;;;;;10.23;3.88;;;4.80;99.90;;;;;;4931668;29;20062;-73
2021/12/08 08:05:42;;;;;;;8.57;4.03;;;4.80;99.90;;;;;;4942531;28;20051;-74
2021/12/08 08:08:13;;;;;;;8.25;3.15;;;4.80;99.90;;;;;;4916516;29;20056;-73
2021/12/08 08:10:43;;;;;;;10.07;3.60;;;4.80;99.90;;;;;;4946837;29;20055;-73
2021/12/08 08:13:11;;;;;;;9.70;3.28;;;4.80;99.90;;;;;;4934403;29;20057;-73
2021/12/08 08:15:47;;;;;;;12.85;3.88;;;4.80;99.90;;;;;;4929634;28;20051;-73
2021/12/08 08:18:18;;;;;;;5.97;3.00;;;4.80;99.90;;;;;;4941500;29;20036;-73
2021/12/08 08:20:49;;;;;;;7.35;2.83;;;4.80;99.90;;;;;;4952478;29;20073;-73
2021/12/08 08:23:21;;;;;;;7.55;3.17;;;4.80;99.90;;;;;;4924848;29;20464;-73
2021/12/08 08:25:49;;;;;;;8.27;2.90;;;4.80;99.90;;;;;;4930026;29;20059;-74
2021/12/08 08:28:16;;;;;;;7.72;2.85;;;4.80;99.90;;;;;;4946845;28;20115;-74
2021/12/08 08:30:51;;;;;;;7.03;3.20;;;4.80;99.90;;;;;;4930856;29;20048;-74
2021/12/08 08:33:17;;;;;;;8.95;2.83;;;4.80;99.90;;;;;;4919189;29;20509;-73
2021/12/08 08:35:56;;;;;;;10.88;3.03;;;4.90;99.90;;;;;;4930758;29;20039;-74
2021/12/08 08:38:29;;;;;;;7.00;2.40;;;4.90;99.90;;;;;;4922229;29;20043;-73
2021/12/08 08:40:59;;;;;;;8.50;2.67;;;4.90;99.90;;;;;;4939362;29;20061;-74
2021/12/08 08:43:26;;;;;;;9.40;2.42;;;4.90;99.90;;;;;;4924858;29;20145;-73
2021/12/08 08:46:09;;;;;;;11.25;3.35;;;5.00;99.90;;;;;;4942206;29;20051;-73
2021/12/08 08:48:49;;;;;;;11.60;2.70;;;5.00;99.90;;;;;;4953670;29;20039;-73
2021/12/08 08:51:30;;;;;;;6.50;2.38;;;5.00;99.90;;;;;;4941574;28;20044;-73
2021/12/08 08:54:02;;;;;;;8.38;2.53;;;5.00;99.90;;;;;;4946115;29;20043;-74
2021/12/08 08:56:32;;;;;;;7.50;3.33;;;5.00;99.90;;;;;;4946804;29;20130;-74
2021/12/08 08:59:03;;;;;;;12.15;3.28;;;5.00;99.90;;;;;;4919898;28;20496;-73
2021/12/08 09:01:38;;;;;;;8.98;2.63;;;5.00;99.90;;;;;;4921037;29;20051;-74
2021/12/08 09:04:15;;;;;;;8.25;3.83;;;5.10;99.90;;;;;;4954283;28;20394;-73
2021/12/08 09:06:45;;;;;;;9.68;3.08;;;5.20;99.90;;;;;;4955862;29;20043;-73
2021/12/08 09:09:16;;;;;;;13.73;3.17;;;5.20;99.90;;;;;;4934050;29;20043;-74
2021/12/08 09:12:00;;;;;;;11.15;3.08;;;5.20;99.90;;;;;;4923544;29;20081;-73
2021/12/08 09:14:31;;;;;;;10.18;2.50;;;5.30;99.90;;;;;;4919908;29;20102;-72
2021/12/08 09:17:07;;;;;;;7.20;1.80;;;5.30;99.90;;;;;;4942144;28;20047;-79
2021/12/08 09:19:44;;;;;;;8.35;1.90;;;5.40;99.90;;;;;;4931085;29;20081;-73
2021/12/08 09:22:40;;;;;;;6.18;2.22;;;5.40;99.90;;;;;;4922407;29;20051;-76
2021/12/08 09:25:17;;;;;;;9.55;1.88;;;5.40;99.90;;;;;;4935705;29;20056;-74
2021/12/08 09:27:51;;;;;;;11.57;1.95;;;5.40;99.90;;;;;;4943713;29;20439;-74
2021/12/08 09:30:36;;;;;;;9.48;2.60;;;5.40;99.90;;;;;;4930220;29;20121;-74
2021/12/08 09:33:25;;;;;;;10.88;1.90;;;5.40;99.90;;;;;;4927039;29;20102;-74
2021/12/08 09:35:57;;;;;;;8.25;2.55;;;5.40;99.90;;;;;;4934671;29;20050;-75
2021/12/08 09:38:49;;;;;;;6.40;1.83;;;5.40;99.90;;;;;;4932821;29;20043;-74
2021/12/08 09:41:25;;;;;;;9.85;2.17;;;5.40;99.90;;;;;;4921805;29;20110;-74
2021/12/08 09:44:00;;;;;;;6.90;2.15;;;5.40;99.90;;;;;;4921659;29;20039;-74
2021/12/08 09:46:35;;;;;;;9.35;2.25;;;5.40;99.90;;;;;;4923661;29;20048;-74
2021/12/08 09:49:04;;;;;;;8.82;1.80;;;5.50;99.90;;;;;;4936864;29;20039;-75
2021/12/08 09:51:30;;;;;;;9.90;1.70;;;5.40;99.90;;;;;;4936397;29;20165;-75
2021/12/08 09:53:56;;;;;;;7.78;2.20;;;5.50;99.90;;;;;;4932720;29;20040;-75
2021/12/08 09:56:24;;;;;;;9.70;2.13;;;5.50;99.90;;;;;;4939869;29;20039;-74
2021/12/08 09:58:50;;;;;;;8.20;2.55;;;5.50;99.90;;;;;;4925598;28;20495;-74
2021/12/08 10:01:19;;;;;;;10.73;2.42;;;5.60;99.90;;;;;;4941410;29;20047;-74
2021/12/08 10:03:47;;;;;;;12.40;2.10;;;5.50;99.90;;;;;;4938046;29;20047;-74
2021/12/08 10:06:14;;;;;;;10.95;2.20;;;5.60;99.90;;;;;;4968428;28;20035;-74
2021/12/08 10:08:44;;;;;;;10.02;1.90;;;5.60;99.90;;;;;;4937995;29;20043;-75
2021/12/08 10:11:11;;;;;;;11.23;2.00;;;5.70;99.90;;;;;;4954736;29;20062;-74
2021/12/08 10:13:37;;;;;;;11.15;2.25;;;5.70;99.90;;;;;;4936963;29;20565;-73
2021/12/08 10:16:03;;;;;;;11.20;2.22;;;5.70;99.90;;;;;;4938185;29;20054;-75
2021/12/08 10:18:29;;;;;;;12.20;2.55;;;5.70;99.90;;;;;;4942054;29;20049;-74
2021/12/08 10:20:55;;;;;;;8.40;2.28;;;5.70;99.90;;;;;;4951912;28;20073;-74
2021/12/08 10:23:30;;;;;;;13.35;2.08;;;6.30;99.90;;;;;;4937859;29;20051;-74
2021/12/08 10:26:07;;;;;;;8.07;2.00;;;5.70;99.90;;;;;;4932914;29;20066;-74
2021/12/08 10:28:39;;;;;;;6.38;2.05;;;5.70;99.90;;;;;;4921611;29;20439;-74
2021/12/08 10:31:19;;;;;;;10.98;2.35;;;5.80;99.90;;;;;;4927676;29;20039;-75
2021/12/08 10:34:02;;;;;;;6.80;1.60;;;5.80;99.90;;;;;;4933453;28;20079;-75
2021/12/08 10:36:54;;;;;;;8.38;2.05;;;5.90;99.90;;;;;;4932462;29;20069;-74
2021/12/08 10:39:31;;;;;;;6.35;1.80;;;5.90;99.90;;;;;;4937594;29;20058;-79
2021/12/08 10:42:07;;;;;;;8.70;2.50;;;5.90;99.90;;;;;;4917874;29;20375;-75
2021/12/08 10:45:15;;;;;;;14.30;2.55;;;6.00;99.90;;;;;;4894952;29;20049;-73
2021/12/08 10:47:47;;;;;;;11.43;2.45;;;6.00;99.90;;;;;;4895889;29;20044;-75
2021/12/08 10:56:05;;;;;;;7.60;2.13;;;6.00;99.90;;;;;;4883059;29;20413;-74
2021/12/08 10:58:34;;;;;;;8.32;2.20;;;6.10;99.90;;;;;;4891102;29;20047;-76
2021/12/08 11:01:11;;;;;;;9.90;1.95;;;6.30;99.90;;;;;;4886891;29;20064;-76
2021/12/08 11:03:38;;;;;;;17.83;2.20;;;6.20;99.90;;;;;;4889078;29;20044;-76
2021/12/08 11:06:04;;;;;;;11.00;2.38;;;6.20;99.90;;;;;;4898557;29;20071;-75
2021/12/08 11:08:33;;;;;;;11.68;2.17;;;6.20;99.90;;;;;;4899173;29;20083;-76
2021/12/08 11:11:22;;;;;;;13.10;2.58;;;6.30;99.90;;;;;;4896260;29;20062;-76
2021/12/08 11:13:56;;;;;;;10.40;3.67;;;6.30;99.90;;;;;;4890612;29;20052;-78
2021/12/08 11:16:31;;;;;;;13.68;2.45;;;6.30;99.90;;;;;;4891317;29;20058;-77
2021/12/08 11:19:05;;;;;;;7.38;2.00;;;6.30;99.90;;;;;;4894521;29;20559;-78
2021/12/08 11:21:38;;;;;;;6.47;2.03;;;6.40;99.90;;;;;;4910658;29;20048;-78
2021/12/08 11:24:15;;;;;;;8.00;2.10;;;6.70;99.90;;;;;;4892213;29;20056;-77
2021/12/08 11:26:46;;;;;;;11.00;2.58;;;6.40;99.90;;;;;;4898163;29;20074;-74
2021/12/08 11:29:13;;;;;;;10.50;2.40;;;6.30;99.90;;;;;;4894283;29;20102;-76
2021/12/08 11:31:43;;;;;;;10.70;2.35;;;6.30;99.90;;;;;;4892571;29;20052;-77
2021/12/08 11:34:28;;;;;;;11.00;2.58;;;6.30;99.90;;;;;;4895136;29;20098;-76
2021/12/08 11:36:59;;;;;;;8.45;2.53;;;6.40;99.90;;;;;;4885227;29;20115;-79
2021/12/08 11:39:31;;;;;;;7.82;2.60;;;6.30;99.90;;;;;;4896876;29;20051;-80
2021/12/08 11:42:10;;;;;;;9.20;2.58;;;6.30;99.90;;;;;;4882892;29;20508;-80
2021/12/08 11:44:38;;;;;;;10.27;2.45;;;6.30;99.90;;;;;;4895340;29;20051;-79
2021/12/08 11:47:10;;;;;;;10.07;2.58;;;6.30;99.90;;;;;;4885556;29;20099;-79
2021/12/08 11:49:45;;;;;;;7.95;2.80;;;6.30;99.90;;;;;;4887032;29;20059;-79
2021/12/08 11:52:13;;;;;;;;;;;6.30;99.90;;;;;;4911616;29;20171;-79
2021/12/08 11:54:48;;;;;;;8.65;2.17;;;6.30;99.90;;;;;;4902252;29;19926;-79
2021/12/08 11:57:20;;;;;;;8.43;2.35;;;6.30;99.90;;;;;;4910054;29;20048;-79
2021/12/08 11:59:57;;;;;;;6.53;2.80;;;6.30;99.90;;;;;;4888836;29;20043;-79
2021/12/08 12:02:26;;;;;;;11.13;2.63;;;6.30;99.90;;;;;;4898596;29;20075;-79
2021/12/08 12:04:52;;;;;;;8.48;2.25;;;6.30;99.90;;;;;;4913626;29;20099;-75
2021/12/08 12:07:18;;;;;;;9.00;2.55;;;6.20;99.90;;;;;;4906314;29;20551;-75
2021/12/08 12:09:45;;;;;;;7.47;2.13;;;6.20;99.90;;;;;;4894203;29;20036;-76
2021/12/08 12:12:11;;;;;;;7.43;2.20;;;6.20;99.90;;;;;;4901407;29;20115;-76
2021/12/08 12:14:37;;;;;;;10.73;2.53;;;6.20;99.90;;;;;;4901920;29;20044;-75
2021/12/08 12:17:03;;;;;;;10.52;2.10;;;6.20;99.90;;;;;;4913667;29;20040;-75
2021/12/08 12:19:35;;;;;;;7.55;2.38;;;6.20;99.90;;;;;;4897112;29;20094;-76
2021/12/08 12:22:33;;;;;;;8.52;2.50;;;6.20;99.90;;;;;;4882806;29;20098;-76
2021/12/08 12:25:23;;;;;;;8.48;3.72;;;6.20;99.90;;;;;;4906010;29;20500;-75
2021/12/08 12:28:16;;;;;;;13.00;4.22;;;6.20;99.90;;;;;;4886685;29;20052;-74
2021/12/08 12:30:54;;;;;;;7.57;3.05;;;6.20;99.90;;;;;;4895508;29;20048;-76
2021/12/08 12:33:22;;;;;;;7.40;2.88;;;6.20;99.90;;;;;;4904752;29;20079;-76
2021/12/08 12:35:52;;;;;;;7.32;2.38;;;6.10;99.90;;;;;;4912789;29;20064;-76
2021/12/08 12:38:30;;;;;;;8.45;2.20;;;6.10;99.90;;;;;;4895695;29;20067;-75
2021/12/08 12:40:57;;;;;;;12.07;2.75;;;6.10;99.90;;;;;;4886665;29;20397;-76
2021/12/08 12:43:26;;;;;;;11.57;2.50;;;6.10;99.90;;;;;;4890836;29;20059;-76
2021/12/08 12:46:06;;;;;;;10.48;2.90;;;6.30;99.90;;;;;;4892639;29;20072;-76
2021/12/08 12:48:32;;;;;;;8.18;2.20;;;6.10;99.90;;;;;;4893023;29;20150;-76
2021/12/08 12:51:16;;;;;;;9.95;2.35;;;6.10;99.90;;;;;;4889847;29;20142;-76
2021/12/08 12:53:45;;;;;;;9.90;2.33;;;6.10;99.90;;;;;;4898372;29;20044;-75
2021/12/08 12:56:34;;;;;;;9.65;2.40;;;6.10;99.90;;;;;;4882595;29;20568;-76
2021/12/08 12:59:14;;;;;;;11.40;2.45;;;6.10;99.90;;;;;;4908871;29;20052;-75
2021/12/08 13:01:46;;;;;;;9.57;2.42;;;6.10;99.90;;;;;;4890261;29;20061;-75
2021/12/08 13:04:56;;;;;;;9.10;2.00;;;6.10;99.90;;;;;;4890398;29;20056;-74
2021/12/08 13:07:24;;;;;;;7.95;2.20;;;6.10;99.90;;;;;;4895730;29;20082;-74
2021/12/08 13:09:52;;;;;;;8.93;2.13;;;6.10;99.90;;;;;;4890544;29;20048;-74
2021/12/08 13:12:25;;;;;;;10.15;2.42;;;6.10;99.90;;;;;;4895891;29;20060;-74
2021/12/08 13:15:19;;;;;;;9.95;2.40;;;6.10;99.90;;;;;;4908875;29;20090;-74
2021/12/08 13:18:08;;;;;;;10.80;2.00;;;6.10;99.90;;;;;;4888922;29;20048;-74
2021/12/08 13:20:46;;;;;;;11.23;2.65;;;6.10;99.90;;;;;;4907711;29;20052;-78
2021/12/08 13:23:17;;;;;;;12.50;2.20;;;6.10;99.90;;;;;;4891873;29;20041;-78
2021/12/08 13:28:23;;;;;;;10.15;2.25;;;6.10;99.90;;;;;;4898469;29;20545;-78
2021/12/08 13:31:07;;;;;;;8.52;2.40;;;6.10;99.90;;;;;;4886201;29;20048;-78
2021/12/08 13:33:40;;;;;;;11.02;2.35;;;6.10;99.90;;;;;;4894270;29;20051;-78
2021/12/08 13:36:21;;;;;;;9.63;2.40;;;6.10;99.90;;;;;;4913276;29;20047;-75
2021/12/08 13:38:53;;;;;;;11.18;2.38;;;6.10;99.90;;;;;;4886472;29;20044;-78
2021/12/08 13:41:19;;;;;;;7.82;1.92;;;6.10;99.90;;;;;;4904581;29;20044;-78
2021/12/08 13:43:49;;;;;;;7.97;2.17;;;6.10;99.90;;;;;;4889853;29;20052;-78
2021/12/08 13:46:39;;;;;;;8.43;2.25;;;6.10;99.90;;;;;;4890678;29;20067;-78
2021/12/08 13:49:26;;;;;;;8.05;2.13;;;6.00;99.90;;;;;;4914654;29;20464;-78
2021/12/08 13:52:21;;;;;;;6.15;1.90;;;6.00;99.90;;;;;;4909510;29;20104;-76
2021/12/08 13:54:53;;;;;;;9.57;2.22;;;6.10;99.90;;;;;;4909857;29;20527;-77
2021/12/08 13:57:40;;;;;;;9.93;2.50;;;6.00;99.90;;;;;;4897369;29;20147;-76